createdAt,value
2023-04-18T00:01:08.585Z,35.67
2023-04-18T00:03:37.407Z,32.25
2023-04-18T00:06:04.621Z,30.70
2023-04-18T00:08:31.097Z,33.97
2023-04-18T00:10:57.607Z,34.47
2023-04-18T00:13:24.171Z,30.02
2023-04-18T00:15:50.824Z,35.65
2023-04-18T00:18:17.378Z,32.35
2023-04-18T00:20:43.911Z,29.85
2023-04-18T00:23:11.530Z,28.17
2023-04-18T00:25:40.678Z,33.47
2023-04-18T00:28:07.182Z,27.20
2023-04-18T00:30:33.742Z,33.10
2023-04-18T00:33:00.442Z,30.92
2023-04-18T00:35:26.954Z,32.78
2023-04-18T00:37:53.436Z,28.50
2023-04-18T00:40:19.999Z,32.92
2023-04-18T00:42:46.493Z,31.02
2023-04-18T00:45:14.028Z,29.48
2023-04-18T00:47:40.529Z,28.13
2023-04-18T00:50:09.318Z,29.55
2023-04-18T00:52:36.258Z,30.25
2023-04-18T00:55:06.201Z,31.42
2023-04-18T00:57:33.269Z,30.67
2023-04-18T01:00:05.669Z,40.88
2023-04-18T01:02:33.806Z,33.88
2023-04-18T01:05:00.388Z,36.03
2023-04-18T01:07:27.123Z,32.08
2023-04-18T01:09:57.546Z,32.35
2023-04-18T01:12:24.081Z,31.60
2023-04-18T01:14:50.713Z,33.03
2023-04-18T01:17:18.191Z,28.10
2023-04-18T01:19:45.038Z,34.55
2023-04-18T01:22:13.987Z,28.83
2023-04-18T01:24:40.851Z,30.33
2023-04-18T01:27:12.196Z,32.38
2023-04-18T01:29:39.199Z,31.98
2023-04-18T01:32:06.476Z,29.75
2023-04-18T01:34:33.017Z,31.13
2023-04-18T01:36:59.519Z,33.05
2023-04-18T01:39:26.042Z,31.50
2023-04-18T01:41:52.544Z,31.13
2023-04-18T01:44:19.057Z,31.17
2023-04-18T01:46:46.006Z,31.05
2023-04-18T01:49:12.570Z,31.45
2023-04-18T01:51:39.266Z,31.13
2023-04-18T01:54:05.790Z,32.10
2023-04-18T01:56:32.276Z,29.02
2023-04-18T01:59:00.674Z,35.53
2023-04-18T02:01:27.861Z,27.30
2023-04-18T02:03:54.607Z,28.42
2023-04-18T02:06:21.382Z,28.05
2023-04-18T02:08:47.908Z,28.38
2023-04-18T02:11:14.401Z,31.00
2023-04-18T02:13:40.842Z,31.88
2023-04-18T02:16:11.939Z,33.95
2023-04-18T02:18:38.472Z,34.35
2023-04-18T02:21:06.128Z,34.80
2023-04-18T02:23:32.671Z,34.85
2023-04-18T02:25:59.117Z,32.65
2023-04-18T02:28:25.705Z,31.92
2023-04-18T02:30:52.183Z,36.90
2023-04-18T02:33:18.712Z,36.50
2023-04-18T02:35:45.173Z,32.83
2023-04-18T02:38:11.698Z,32.40
2023-04-18T02:40:38.152Z,36.17
2023-04-18T02:43:04.629Z,36.47
2023-04-18T02:45:31.093Z,34.22
2023-04-18T02:47:59.762Z,32.28
2023-04-18T02:50:26.231Z,34.15
2023-04-18T02:52:56.969Z,34.77
2023-04-18T02:55:29.383Z,30.08
2023-04-18T02:57:59.091Z,33.38
2023-04-18T03:00:44.025Z,30.40
2023-04-18T03:03:42.631Z,30.02
2023-04-18T03:06:32.088Z,29.50
2023-04-18T03:09:01.046Z,31.55
2023-04-18T03:11:28.551Z,32.83
2023-04-18T03:13:55.425Z,28.00
2023-04-18T03:16:24.548Z,31.20
2023-04-18T03:18:51.050Z,32.92
2023-04-18T03:21:18.606Z,31.13
2023-04-18T03:23:45.174Z,32.33
2023-04-18T03:26:11.808Z,30.08
2023-04-18T03:28:40.226Z,36.33
2023-04-18T03:31:07.432Z,30.83
2023-04-18T03:33:37.155Z,30.25
2023-04-18T03:36:08.757Z,34.38
2023-04-18T03:38:35.346Z,28.95
2023-04-18T03:41:02.686Z,31.50
2023-04-18T03:43:33.327Z,29.23
2023-04-18T03:45:59.992Z,34.50
2023-04-18T03:48:27.123Z,32.75
2023-04-18T03:50:54.767Z,30.60
2023-04-18T03:53:21.347Z,31.77
2023-04-18T03:55:48.253Z,35.42
2023-04-18T03:58:18.026Z,35.67
2023-04-18T04:00:45.560Z,33.97
2023-04-18T04:03:12.141Z,40.95
2023-04-18T04:05:39.840Z,33.97
2023-04-18T04:08:06.362Z,32.53
2023-04-18T04:10:33.937Z,34.72
2023-04-18T04:13:00.433Z,35.53
2023-04-18T04:15:28.284Z,35.47
2023-04-18T04:18:01.470Z,36.58
2023-04-18T04:20:28.560Z,34.67
2023-04-18T04:23:06.341Z,37.97
2023-04-18T04:25:34.821Z,38.25
2023-04-18T04:28:06.741Z,36.67
2023-04-18T04:30:40.073Z,34.55
2023-04-18T04:33:07.768Z,30.88
2023-04-18T04:35:34.288Z,37.90
2023-04-18T04:38:00.968Z,31.15
2023-04-18T04:40:33.930Z,33.35
2023-04-18T04:43:11.837Z,35.38
2023-04-18T04:45:41.778Z,38.42
2023-04-18T04:48:09.190Z,37.35
2023-04-18T04:50:40.935Z,34.15
2023-04-18T04:53:10.553Z,35.53
2023-04-18T04:55:37.562Z,32.70
2023-04-18T04:58:05.049Z,32.90
2023-04-18T05:00:50.145Z,32.80
2023-04-18T05:03:16.938Z,36.72
2023-04-18T05:05:44.833Z,32.15
2023-04-18T05:08:11.324Z,35.75
2023-04-18T05:10:37.789Z,36.92
2023-04-18T05:13:04.672Z,36.92
2023-04-18T05:15:31.590Z,33.03
2023-04-18T05:17:58.587Z,35.28
2023-04-18T05:20:25.416Z,32.75
2023-04-18T05:22:51.921Z,37.53
2023-04-18T05:25:18.713Z,36.38
2023-04-18T05:27:45.770Z,38.28
2023-04-18T05:30:12.425Z,36.13
2023-04-18T05:32:38.991Z,38.67
2023-04-18T05:35:07.018Z,37.13
2023-04-18T05:37:33.570Z,37.35
2023-04-18T05:40:00.888Z,39.53
2023-04-18T05:42:27.759Z,42.58
2023-04-18T05:44:54.202Z,35.88
2023-04-18T05:47:20.692Z,39.80
2023-04-18T05:49:47.163Z,41.15
2023-04-18T05:52:13.650Z,41.10
2023-04-18T05:54:40.084Z,39.47
2023-04-18T05:57:06.698Z,41.00
2023-04-18T05:59:33.141Z,39.67
2023-04-18T06:01:59.671Z,38.25
2023-04-18T06:04:26.274Z,44.35
2023-04-18T06:06:52.941Z,40.47
2023-04-18T06:09:19.436Z,34.42
2023-04-18T06:11:45.981Z,36.72
2023-04-18T06:14:12.721Z,36.45
2023-04-18T06:16:39.464Z,38.40
2023-04-18T06:19:06.079Z,39.17
2023-04-18T06:21:32.675Z,41.63
2023-04-18T06:23:59.173Z,36.97
2023-04-18T06:26:25.718Z,37.70
2023-04-18T06:28:52.406Z,37.38
2023-04-18T06:31:19.059Z,34.72
2023-04-18T06:33:45.622Z,43.17
2023-04-18T06:36:12.164Z,37.88
2023-04-18T06:38:38.795Z,46.15
2023-04-18T06:41:05.291Z,42.30
2023-04-18T06:43:33.181Z,44.15
2023-04-18T06:46:00.654Z,40.28
2023-04-18T06:48:27.140Z,38.67
2023-04-18T06:50:53.626Z,31.25
2023-04-18T06:53:20.134Z,39.95
2023-04-18T06:55:46.731Z,36.25
2023-04-18T06:58:13.389Z,38.50
2023-04-18T07:00:40.020Z,44.50
2023-04-18T07:03:07.633Z,36.25
2023-04-18T07:05:36.491Z,35.15
2023-04-18T07:08:03.259Z,37.95
2023-04-18T07:10:30.317Z,38.67
2023-04-18T07:12:56.919Z,37.85
2023-04-18T07:15:23.678Z,39.97
2023-04-18T07:17:50.226Z,37.33
2023-04-18T07:20:16.900Z,38.90
2023-04-18T07:22:43.418Z,34.33
2023-04-18T07:25:10.019Z,34.90
2023-04-18T07:27:37.112Z,34.28
2023-04-18T07:30:04.733Z,36.55
2023-04-18T07:32:31.235Z,38.38
2023-04-18T07:34:57.761Z,35.50
2023-04-18T07:37:24.324Z,31.92
2023-04-18T07:39:51.082Z,34.95
2023-04-18T07:42:17.686Z,35.20
2023-04-18T07:44:44.177Z,36.90
2023-04-18T07:47:10.800Z,31.10
2023-04-18T07:49:38.267Z,29.48
2023-04-18T07:52:05.206Z,26.25
2023-04-18T07:54:31.732Z,27.10
2023-04-18T07:56:59.112Z,30.23
2023-04-18T07:59:25.683Z,28.52
2023-04-18T08:01:52.152Z,26.38
2023-04-18T08:04:18.779Z,23.00
2023-04-18T08:06:45.447Z,23.58
2023-04-18T08:09:12.098Z,28.52
2023-04-18T08:11:38.795Z,24.63
2023-04-18T08:14:05.354Z,22.10
2023-04-18T08:16:31.848Z,26.70
2023-04-18T08:18:58.558Z,24.02
2023-04-18T08:21:25.051Z,21.23
2023-04-18T08:23:51.514Z,21.40
2023-04-18T08:26:18.013Z,23.27
2023-04-18T08:28:46.293Z,21.55
2023-04-18T08:31:14.151Z,20.42
2023-04-18T08:33:41.307Z,22.52
2023-04-18T08:36:08.164Z,16.25
2023-04-18T08:38:34.691Z,16.45
2023-04-18T08:41:01.190Z,16.50
2023-04-18T08:43:27.686Z,17.00
2023-04-18T08:45:58.968Z,18.08
2023-04-18T08:48:25.554Z,13.15
2023-04-18T08:50:57.000Z,14.52
2023-04-18T08:55:56.709Z,15.05
2023-04-18T08:58:23.897Z,16.13
2023-04-18T09:00:51.539Z,15.80
2023-04-18T09:03:43.703Z,16.02
2023-04-18T09:06:15.206Z,14.27
2023-04-18T09:11:29.783Z,17.52
2023-04-18T09:13:56.976Z,17.15
2023-04-18T09:16:23.600Z,17.02
2023-04-18T09:19:08.956Z,18.63
2023-04-18T09:21:38.460Z,16.02
2023-04-18T09:24:19.956Z,16.00
2023-04-18T09:26:47.390Z,17.65
2023-04-18T09:29:14.029Z,16.50
2023-04-18T09:32:00.069Z,14.85
2023-04-18T09:34:29.592Z,19.67
2023-04-18T09:37:10.613Z,16.23
2023-04-18T09:39:38.740Z,13.73
2023-04-18T09:42:05.567Z,16.80
2023-04-18T09:44:32.315Z,15.02
2023-04-18T09:46:58.781Z,10.45
2023-04-18T09:49:25.279Z,15.13
2023-04-18T09:51:54.082Z,16.63
2023-04-18T09:54:23.862Z,14.52
2023-04-18T09:56:51.826Z,13.65
2023-04-18T09:59:42.648Z,13.30
2023-04-18T10:02:15.566Z,14.32
2023-04-18T10:04:46.505Z,18.20
2023-04-18T10:07:14.714Z,15.73
2023-04-18T10:09:41.472Z,18.88
2023-04-18T10:12:08.393Z,12.10
2023-04-18T10:14:37.794Z,16.67
2023-04-18T10:17:04.362Z,18.67
2023-04-18T10:19:30.866Z,12.60
2023-04-18T10:22:01.801Z,10.65
2023-04-18T10:24:47.492Z,14.75
2023-04-18T10:27:14.482Z,13.82
2023-04-18T10:29:51.784Z,12.20
2023-04-18T10:32:22.155Z,12.82
2023-04-18T10:34:49.335Z,13.43
2023-04-18T10:37:15.834Z,13.43
2023-04-18T10:40:00.540Z,10.43
2023-04-18T10:42:45.526Z,13.18
2023-04-18T10:45:19.599Z,18.77
2023-04-18T10:47:46.237Z,12.85
2023-04-18T10:50:13.109Z,12.65
2023-04-18T10:52:39.762Z,11.45
2023-04-18T10:55:17.230Z,13.05
2023-04-18T10:57:46.325Z,12.45
2023-04-18T11:00:16.219Z,13.73
2023-04-18T11:03:09.255Z,14.80
2023-04-18T11:05:35.863Z,11.38
2023-04-18T11:08:02.940Z,12.52
2023-04-18T11:10:29.519Z,13.02
2023-04-18T11:12:56.068Z,14.85
2023-04-18T11:15:24.538Z,12.93
2023-04-18T11:18:02.509Z,13.77
2023-04-18T11:20:40.016Z,9.63
2023-04-18T11:23:16.675Z,12.75
2023-04-18T11:25:43.283Z,8.63
2023-04-18T11:28:09.761Z,12.15
2023-04-18T11:30:38.319Z,12.77
2023-04-18T11:33:09.317Z,13.88
2023-04-18T11:35:44.047Z,14.75
2023-04-18T11:38:14.385Z,13.45
2023-04-18T11:40:48.693Z,13.43
2023-04-18T11:43:21.369Z,15.90
2023-04-18T11:45:53.142Z,12.40
2023-04-18T11:48:19.727Z,14.55
2023-04-18T11:50:46.177Z,14.05
2023-04-18T11:53:12.644Z,14.88
2023-04-18T11:55:39.197Z,9.25
2023-04-18T11:58:05.759Z,13.07
2023-04-18T12:00:36.891Z,11.57
2023-04-18T12:03:05.888Z,18.05
2023-04-18T12:05:34.910Z,15.45
2023-04-18T12:08:12.793Z,15.32
2023-04-18T12:10:50.492Z,18.02
2023-04-18T12:13:17.832Z,12.55
2023-04-18T12:15:46.583Z,10.90
2023-04-18T12:18:14.596Z,11.75
2023-04-18T12:20:46.566Z,11.65
2023-04-18T12:23:28.750Z,14.18
2023-04-18T12:26:02.940Z,11.10
2023-04-18T12:28:30.752Z,12.10
2023-04-18T12:30:57.576Z,12.52
2023-04-18T12:33:24.587Z,12.00
2023-04-18T12:35:52.224Z,11.88
2023-04-18T12:38:23.390Z,14.30
2023-04-18T12:40:51.270Z,13.95
2023-04-18T12:43:18.747Z,15.07
2023-04-18T12:45:46.254Z,11.68
2023-04-18T12:48:13.127Z,12.30
2023-04-18T12:50:39.609Z,15.25
2023-04-18T12:53:06.109Z,10.25
2023-04-18T12:55:32.805Z,13.70
2023-04-18T12:57:59.491Z,12.52
2023-04-18T13:00:28.258Z,15.02
2023-04-18T13:02:55.079Z,13.38
2023-04-18T13:05:24.915Z,11.68
2023-04-18T13:07:54.079Z,9.48
2023-04-18T13:10:25.391Z,11.65
2023-04-18T13:12:52.717Z,13.02
2023-04-18T13:15:19.281Z,11.52
2023-04-18T13:17:45.817Z,17.42
2023-04-18T13:20:12.698Z,11.95
2023-04-18T13:22:40.545Z,16.88
2023-04-18T13:25:08.008Z,15.52
2023-04-18T13:27:34.493Z,13.77
2023-04-18T13:30:00.969Z,15.35
2023-04-18T13:32:27.450Z,16.25
2023-04-18T13:34:54.022Z,14.48
2023-04-18T13:37:20.543Z,13.45
2023-04-18T13:39:47.071Z,11.75
2023-04-18T13:42:15.959Z,16.95
2023-04-18T13:44:42.747Z,17.15
2023-04-18T13:47:09.271Z,13.02
2023-04-18T13:49:36.070Z,12.68
2023-04-18T13:52:03.701Z,12.02
2023-04-18T13:54:32.072Z,11.18
2023-04-18T13:57:00.852Z,15.18
2023-04-18T13:59:27.531Z,12.45
2023-04-18T14:01:55.097Z,11.65
2023-04-18T14:04:22.513Z,12.15
2023-04-18T14:06:49.909Z,13.02
2023-04-18T14:09:17.296Z,13.27
2023-04-18T14:11:45.223Z,11.18
2023-04-18T14:14:11.790Z,8.30
2023-04-18T14:16:38.342Z,14.95
2023-04-18T14:19:04.902Z,15.75
2023-04-18T14:21:31.487Z,12.77
2023-04-18T14:23:57.988Z,12.05
2023-04-18T14:26:24.563Z,10.68
2023-04-18T14:28:51.403Z,12.57
2023-04-18T14:31:17.947Z,13.80
2023-04-18T14:33:44.543Z,11.13
2023-04-18T14:36:11.062Z,13.38
2023-04-18T14:38:37.530Z,13.35
2023-04-18T14:41:04.612Z,11.95
2023-04-18T14:43:31.134Z,13.82
2023-04-18T14:45:58.983Z,13.00
2023-04-18T14:48:26.350Z,11.70
2023-04-18T14:50:59.663Z,10.57
2023-04-18T14:53:26.545Z,14.35
2023-04-18T14:55:53.051Z,10.55
2023-04-18T14:58:19.752Z,9.48
2023-04-18T15:00:46.279Z,10.13
2023-04-18T15:03:12.882Z,13.60
2023-04-18T15:05:39.467Z,9.77
2023-04-18T15:08:05.989Z,13.85
2023-04-18T15:10:32.427Z,11.48
2023-04-18T15:12:59.798Z,10.38
2023-04-18T15:15:26.322Z,13.55
2023-04-18T15:17:52.814Z,8.65
2023-04-18T15:20:20.758Z,10.95
2023-04-18T15:22:48.331Z,11.13
2023-04-18T15:25:14.813Z,11.80
2023-04-18T15:27:41.396Z,13.57
2023-04-18T15:30:10.015Z,11.60
2023-04-18T15:32:36.511Z,11.85
2023-04-18T15:35:03.219Z,11.00
2023-04-18T15:37:30.344Z,16.13
2023-04-18T15:39:57.086Z,12.70
2023-04-18T15:42:23.644Z,12.23
2023-04-18T15:44:50.110Z,11.23
2023-04-18T15:47:16.691Z,15.35
2023-04-18T15:49:43.165Z,12.43
2023-04-18T15:52:09.730Z,16.55
2023-04-18T15:54:40.320Z,10.85
2023-04-18T15:57:06.933Z,11.80
2023-04-18T15:59:33.394Z,15.27
2023-04-18T16:02:00.026Z,16.23
2023-04-18T16:04:26.563Z,11.45
2023-04-18T16:06:53.092Z,16.60
2023-04-18T16:09:19.534Z,13.73
2023-04-18T16:11:46.046Z,14.73
2023-04-18T16:14:12.644Z,13.90
2023-04-18T16:16:39.166Z,12.07
2023-04-18T16:19:05.649Z,17.70
2023-04-18T16:21:32.233Z,21.38
2023-04-18T16:23:59.654Z,15.35
2023-04-18T16:26:26.191Z,15.23
2023-04-18T16:28:52.689Z,12.63
2023-04-18T16:31:19.298Z,13.50
2023-04-18T16:33:45.799Z,15.48
2023-04-18T16:36:12.330Z,11.55
2023-04-18T16:38:38.791Z,13.32
2023-04-18T16:41:05.373Z,14.35
2023-04-18T16:43:31.828Z,11.95
2023-04-18T16:45:58.307Z,10.90
2023-04-18T16:48:25.723Z,13.15
2023-04-18T16:50:52.265Z,11.70
2023-04-18T16:53:18.760Z,12.05
2023-04-18T16:55:45.304Z,14.18
2023-04-18T16:58:11.764Z,16.63
2023-04-18T17:00:38.664Z,12.52
2023-04-18T17:03:05.352Z,13.02
2023-04-18T17:05:31.958Z,11.75
2023-04-18T17:07:58.543Z,14.68
2023-04-18T17:10:25.221Z,14.13
2023-04-18T17:12:51.871Z,11.07
2023-04-18T17:15:18.778Z,14.25
2023-04-18T17:17:45.594Z,12.68
2023-04-18T17:20:12.120Z,16.10
2023-04-18T17:22:38.613Z,12.05
2023-04-18T17:25:05.659Z,12.65
2023-04-18T17:27:32.232Z,15.25
2023-04-18T17:29:58.708Z,15.40
2023-04-18T17:32:25.261Z,16.52
2023-04-18T17:34:51.756Z,15.18
2023-04-18T17:37:18.242Z,12.55
2023-04-18T17:39:44.694Z,14.05
2023-04-18T17:42:11.391Z,11.05
2023-04-18T17:44:37.893Z,14.98
2023-04-18T17:47:04.388Z,12.13
2023-04-18T17:49:30.892Z,12.65
2023-04-18T17:51:57.380Z,12.68
2023-04-18T17:54:23.848Z,10.10
2023-04-18T17:56:50.317Z,11.20
2023-04-18T17:59:16.815Z,19.23
2023-04-18T18:01:43.464Z,15.07
2023-04-18T18:04:10.146Z,14.32
2023-04-18T18:06:36.725Z,15.30
2023-04-18T18:09:03.313Z,15.63
2023-04-18T18:11:29.849Z,13.43
2023-04-18T18:13:56.274Z,19.35
2023-04-18T18:16:23.774Z,16.05
2023-04-18T18:18:50.814Z,14.02
2023-04-18T18:21:17.907Z,13.75
2023-04-18T18:23:44.385Z,15.55
2023-04-18T18:26:11.676Z,17.08
2023-04-18T18:28:38.182Z,16.05
2023-04-18T18:31:04.813Z,22.63
2023-04-18T18:33:31.364Z,16.27
2023-04-18T18:35:58.642Z,19.35
2023-04-18T18:38:25.213Z,17.63
2023-04-18T18:40:51.804Z,24.00
2023-04-18T18:43:18.250Z,19.23
2023-04-18T18:45:44.771Z,18.55
2023-04-18T18:48:11.273Z,17.70
2023-04-18T18:50:37.785Z,20.90
2023-04-18T18:53:04.303Z,19.10
2023-04-18T18:55:30.826Z,22.27
2023-04-18T18:57:57.269Z,16.05
2023-04-18T19:00:23.874Z,22.50
2023-04-18T19:02:50.735Z,20.95
2023-04-18T19:05:17.276Z,18.17
2023-04-18T19:07:43.690Z,24.65
2023-04-18T19:10:10.758Z,17.58
2023-04-18T19:12:37.936Z,19.35
2023-04-18T19:15:05.263Z,23.27
2023-04-18T19:17:31.857Z,18.63
2023-04-18T19:19:58.354Z,20.05
2023-04-18T19:22:24.994Z,19.42
2023-04-18T19:24:51.472Z,20.20
2023-04-18T19:27:18.106Z,23.02
2023-04-18T19:29:44.870Z,22.10
2023-04-18T19:32:11.348Z,18.83
2023-04-18T19:34:38.271Z,18.50
2023-04-18T19:37:07.533Z,22.83
2023-04-18T19:39:34.275Z,22.63
2023-04-18T19:42:00.768Z,19.23
2023-04-18T19:44:27.313Z,23.65
2023-04-18T19:46:53.942Z,24.83
2023-04-18T19:49:20.573Z,22.00
2023-04-18T19:51:47.047Z,23.25
2023-04-18T19:54:13.528Z,21.25
2023-04-18T19:56:40.253Z,20.15
2023-04-18T19:59:06.906Z,19.42
2023-04-18T20:01:33.431Z,25.58
2023-04-18T20:04:00.259Z,16.60
2023-04-18T20:06:27.211Z,19.83
2023-04-18T20:08:53.818Z,18.90
2023-04-18T20:11:20.386Z,19.85
2023-04-18T20:13:46.933Z,27.10
2023-04-18T20:16:13.594Z,21.08
2023-04-18T20:18:41.039Z,18.85
2023-04-18T20:21:09.602Z,26.00
2023-04-18T20:23:37.156Z,24.48
2023-04-18T20:26:04.080Z,22.70
2023-04-18T20:28:31.468Z,20.23
2023-04-18T20:30:57.976Z,15.48
2023-04-18T20:33:24.609Z,24.42
2023-04-18T20:35:51.067Z,22.52
2023-04-18T20:38:17.561Z,19.67
2023-04-18T20:40:44.055Z,23.35
2023-04-18T20:43:10.841Z,19.48
2023-04-18T20:45:37.388Z,22.85
2023-04-18T20:48:04.598Z,18.77
2023-04-18T20:50:31.050Z,22.77
2023-04-18T20:52:58.228Z,26.23
2023-04-18T20:55:24.685Z,21.42
2023-04-18T20:57:51.235Z,19.27
2023-04-18T21:00:17.785Z,21.80
2023-04-18T21:02:44.830Z,20.58
2023-04-18T21:05:11.532Z,22.83
2023-04-18T21:07:37.994Z,22.90
2023-04-18T21:10:04.730Z,20.17
2023-04-18T21:12:31.233Z,29.83
2023-04-18T21:14:57.753Z,22.23
2023-04-18T21:17:24.223Z,27.90
2023-04-18T21:19:51.034Z,23.58
2023-04-18T21:22:17.669Z,21.52
2023-04-18T21:24:44.187Z,26.00
2023-04-18T21:27:10.665Z,25.27
2023-04-18T21:29:37.254Z,19.33
2023-04-18T21:32:03.930Z,20.40
2023-04-18T21:34:30.362Z,29.00
2023-04-18T21:36:56.845Z,27.45
2023-04-18T21:39:23.453Z,25.85
2023-04-18T21:41:49.915Z,26.65
2023-04-18T21:44:16.621Z,28.30
2023-04-18T21:46:43.596Z,21.65
2023-04-18T21:49:10.184Z,25.10
2023-04-18T21:51:36.646Z,29.38
2023-04-18T21:54:03.677Z,21.50
2023-04-18T21:56:30.183Z,26.70
2023-04-18T21:58:56.624Z,27.23
2023-04-18T22:01:23.100Z,27.10
2023-04-18T22:03:49.853Z,20.38
2023-04-18T22:06:16.518Z,24.63
2023-04-18T22:08:43.030Z,25.40
2023-04-18T22:11:09.492Z,32.53
2023-04-18T22:13:35.965Z,26.98
2023-04-18T22:16:02.763Z,26.35
2023-04-18T22:18:29.611Z,21.08
2023-04-18T22:20:56.217Z,23.88
2023-04-18T22:23:23.072Z,25.95
2023-04-18T22:25:49.552Z,22.45
2023-04-18T22:28:16.071Z,26.42
2023-04-18T22:30:42.574Z,23.85
2023-04-18T22:33:09.178Z,31.05
2023-04-18T22:35:35.676Z,23.45
2023-04-18T22:38:02.227Z,25.23
2023-04-18T22:40:28.761Z,28.95
2023-04-18T22:42:55.275Z,25.63
2023-04-18T22:45:21.739Z,27.92
2023-04-18T22:47:48.442Z,22.30
2023-04-18T22:50:15.060Z,26.30
2023-04-18T22:52:41.682Z,21.60
2023-04-18T22:55:08.922Z,20.88
2023-04-18T22:57:35.452Z,25.65
2023-04-18T23:00:01.998Z,24.77
2023-04-18T23:02:28.672Z,25.85
2023-04-18T23:04:56.974Z,29.65
2023-04-18T23:07:23.404Z,25.75
2023-04-18T23:09:49.886Z,27.42
2023-04-18T23:12:16.319Z,29.05
2023-04-18T23:14:42.802Z,25.23
2023-04-18T23:17:09.260Z,24.60
2023-04-18T23:19:35.803Z,21.45
2023-04-18T23:22:02.258Z,21.10
2023-04-18T23:24:30.298Z,30.08
2023-04-18T23:26:56.826Z,33.85
2023-04-18T23:29:23.553Z,27.45
2023-04-18T23:31:50.039Z,24.63
2023-04-18T23:34:16.783Z,26.85
2023-04-18T23:36:43.403Z,30.92
2023-04-18T23:39:09.884Z,30.35
2023-04-18T23:41:36.333Z,29.33
2023-04-18T23:44:02.864Z,23.95
2023-04-18T23:46:29.341Z,31.20
2023-04-18T23:48:55.846Z,28.60
2023-04-18T23:51:22.339Z,26.17
2023-04-18T23:53:48.784Z,23.50
2023-04-18T23:56:15.266Z,25.98
2023-04-18T23:58:41.786Z,25.85
